Time;durP1;ratioP1;P1;durP2;ratioP2;P2;SDS_P1;SDS_P2;PMS_P1;PMS_P2;Temp;Humidity;BMP_temperature;BMP_pressure;BME280_temperature;BME280_humidity;BME280_pressure;Samples;Min_cycle;Max_cycle;Signal;HPM_P1;HPM_P2
2022/03/11 00:01:07;;;;;;;10.20;7.13;;;1.70;99.90;;;2.53;63.31;-19812.81;5093824;28;20662;-59
2022/03/11 00:03:37;;;;;;;10.33;7.33;;;1.70;99.90;;;2.47;63.13;-19811.09;5093056;28;20224;-56
2022/03/11 00:06:05;;;;;;;9.93;6.80;;;1.70;99.90;;;2.32;63.08;-19805.81;5093034;28;20588;-58
2022/03/11 00:08:33;;;;;;;10.67;7.00;;;1.60;99.90;;;2.41;62.79;-19808.88;5092622;28;20306;-60
2022/03/11 00:11:01;;;;;;;9.27;6.50;;;1.70;99.90;;;2.30;63.16;-19805.28;5093074;28;20251;-58
2022/03/11 00:13:29;;;;;;;10.50;6.70;;;1.60;99.90;;;2.35;62.94;-19807.00;5092253;28;20302;-59
2022/03/11 00:15:57;;;;;;;10.53;6.73;;;1.60;99.90;;;2.37;62.18;-19807.69;5093532;28;20336;-59
2022/03/11 00:18:25;;;;;;;10.00;6.90;;;1.60;99.90;;;2.27;62.76;-19804.09;5092484;28;20247;-59
2022/03/11 00:20:54;;;;;;;11.10;6.87;;;1.60;99.90;;;2.31;62.09;-19805.47;5092867;28;20319;-58
2022/03/11 00:23:22;;;;;;;11.43;7.20;;;1.60;99.90;;;2.45;62.09;-19810.25;5092352;28;20307;-58
2022/03/11 00:25:50;;;;;;;8.67;6.97;;;1.60;99.90;;;2.24;62.51;-19803.25;5092750;28;20293;-57
2022/03/11 00:28:18;;;;;;;10.27;6.93;;;1.60;99.90;;;2.50;61.31;-19812.13;5092501;28;20223;-59
2022/03/11 00:30:47;;;;;;;9.37;6.83;;;1.60;99.90;;;2.13;62.25;-19799.31;5092871;28;20306;-58
2022/03/11 00:33:15;;;;;;;10.00;7.07;;;1.50;99.90;;;2.04;63.12;-19796.41;5091501;28;20623;-59
2022/03/11 00:35:43;;;;;;;9.33;7.27;;;1.40;99.90;;;2.12;62.22;-19799.16;5092304;28;20588;-57
2022/03/11 00:38:12;;;;;;;12.57;7.17;;;1.40;99.90;;;2.36;60.97;-19807.34;5092334;28;20281;-56
2022/03/11 00:40:40;;;;;;;10.00;6.80;;;1.50;99.90;;;2.35;60.64;-19807.00;5092665;28;20247;-58
2022/03/11 00:43:08;;;;;;;11.37;6.63;;;1.60;99.90;;;2.25;61.71;-19803.59;5092701;28;20294;-57
2022/03/11 00:45:36;;;;;;;10.03;6.63;;;1.50;99.90;;;2.21;61.69;-19802.22;5091818;28;20414;-56
2022/03/11 00:48:05;;;;;;;10.13;7.17;;;1.50;99.90;;;2.31;61.22;-19805.63;5091955;28;20251;-57
2022/03/11 00:50:33;;;;;;;10.67;7.13;;;1.50;99.90;;;2.18;61.34;-19801.03;5091879;28;20235;-60
2022/03/11 00:53:02;;;;;;;11.27;7.03;;;1.50;99.90;;;2.32;60.84;-19805.97;5092216;28;20247;-60
2022/03/11 00:55:31;;;;;;;10.73;7.60;;;1.50;99.90;;;2.08;61.55;-19797.78;5091804;28;20207;-59
2022/03/11 00:57:59;;;;;;;8.87;6.17;;;1.40;99.90;;;2.10;62.30;-19798.28;5092503;28;20203;-57
2022/03/11 01:00:27;;;;;;;9.50;6.97;;;1.40;99.90;;;2.10;61.70;-19798.47;5091727;28;20637;-55
2022/03/11 01:02:55;;;;;;;8.80;6.63;;;1.30;99.90;;;2.04;61.83;-19796.41;5091804;28;20310;-55
2022/03/11 01:05:23;;;;;;;9.73;6.67;;;1.30;99.90;;;2.04;61.96;-19796.41;5091442;28;20222;-60
2022/03/11 01:07:53;;;;;;;10.13;7.23;;;1.30;99.90;;;1.93;61.71;-19792.66;5091996;28;20304;-59
2022/03/11 01:10:21;;;;;;;10.63;6.87;;;1.30;99.90;;;2.07;61.72;-19797.25;5091511;28;20314;-57
2022/03/11 01:12:50;;;;;;;9.37;6.97;;;1.30;99.90;;;1.90;61.90;-19791.63;5092435;28;20239;-59
2022/03/11 01:15:18;;;;;;;9.87;7.20;;;1.30;99.90;;;1.84;62.06;-19789.41;5091405;28;20234;-58
2022/03/11 01:17:46;;;;;;;10.17;7.13;;;1.20;99.90;;;1.85;62.17;-19789.91;5091633;28;20342;-58
2022/03/11 01:20:15;;;;;;;9.03;6.57;;;1.20;99.90;;;1.89;61.83;-19791.28;5091414;28;20223;-59
2022/03/11 01:22:43;;;;;;;8.83;6.83;;;1.20;99.90;;;2.20;61.18;-19801.69;5091530;28;20246;-59
2022/03/11 01:25:11;;;;;;;10.10;6.63;;;1.20;99.90;;;2.02;61.57;-19795.72;5091693;28;20247;-58
2022/03/11 01:27:40;;;;;;;10.13;6.90;;;1.20;99.90;;;1.98;61.79;-19794.34;5091149;28;20604;-58
2022/03/11 01:30:13;;;;;;;8.67;6.47;;;1.20;99.90;;;1.91;61.51;-19791.97;5091050;28;20313;-59
2022/03/11 01:32:41;;;;;;;9.90;6.83;;;1.20;99.90;;;1.83;61.64;-19789.22;5091818;28;20231;-58
2022/03/11 01:35:11;;;;;;;11.83;6.83;;;1.20;99.90;;;1.86;61.63;-19790.25;5091253;28;20230;-59
2022/03/11 01:37:39;;;;;;;10.00;7.10;;;1.10;99.90;;;1.89;61.28;-19791.09;5088304;28;20206;-58
2022/03/11 01:40:09;;;;;;;10.57;7.10;;;1.10;99.90;;;2.05;60.81;-19796.75;5091712;28;20192;-60
2022/03/11 01:42:37;;;;;;;10.20;6.70;;;1.20;99.90;;;2.10;60.96;-19798.28;5091197;28;20287;-60
2022/03/11 01:45:06;;;;;;;9.70;7.07;;;1.20;99.90;;;1.92;61.12;-19792.31;5089980;28;20230;-60
2022/03/11 01:47:36;;;;;;;8.80;6.53;;;1.20;99.90;;;1.75;62.17;-19786.50;5091147;28;20319;-59
2022/03/11 01:50:05;;;;;;;9.60;6.40;;;1.10;99.90;;;1.87;61.84;-19790.44;5090867;28;20229;-59
2022/03/11 01:52:34;;;;;;;10.37;7.60;;;1.10;99.90;;;1.87;61.32;-19790.59;5091418;28;20637;-57
2022/03/11 01:55:03;;;;;;;10.30;6.93;;;1.10;99.90;;;1.54;62.97;-19779.31;5091847;28;20294;-59
2022/03/11 01:57:35;;;;;;;9.30;7.00;;;0.90;99.90;;;1.51;63.12;-19778.13;5090977;28;20234;-59
2022/03/11 02:00:06;;;;;;;9.37;6.53;;;0.90;99.90;;;1.61;63.28;-19781.53;5090665;28;20241;-58
2022/03/11 02:02:35;;;;;;;10.23;7.10;;;0.90;99.90;;;1.56;63.25;-19780.00;5091176;28;20231;-60
2022/03/11 02:05:04;;;;;;;10.50;6.70;;;0.80;99.90;;;1.52;63.14;-19778.63;5091056;28;20230;-59
2022/03/11 02:07:33;;;;;;;9.53;6.60;;;0.80;99.90;;;1.57;63.25;-19780.34;5091187;28;20634;-59
2022/03/11 02:10:01;;;;;;;8.87;6.27;;;0.80;99.90;;;1.61;63.09;-19781.69;5091056;28;20223;-59
2022/03/11 02:12:32;;;;;;;9.27;6.67;;;0.80;99.90;;;1.66;63.05;-19783.41;5091045;28;20247;-58
2022/03/11 02:15:02;;;;;;;10.17;6.63;;;0.80;99.90;;;1.41;63.42;-19774.69;5090559;28;20224;-59
2022/03/11 02:17:30;;;;;;;10.93;6.93;;;0.70;99.90;;;1.52;62.76;-19778.63;5090822;28;20287;-59
2022/03/11 02:20:00;;;;;;;9.03;6.60;;;0.80;99.90;;;1.33;63.61;-19771.97;5090711;28;20211;-60
2022/03/11 02:22:32;;;;;;;10.73;6.97;;;0.70;99.90;;;1.20;64.29;-19767.84;5090838;28;20295;-58
2022/03/11 02:25:05;;;;;;;9.03;7.20;;;0.60;99.90;;;1.06;64.52;-19762.91;5091388;28;20471;-59
2022/03/11 02:27:36;;;;;;;8.93;6.50;;;0.50;99.90;;;1.04;64.88;-19762.38;5090670;28;20369;-58
2022/03/11 02:30:13;;;;;;;10.17;7.17;;;0.40;99.90;;;1.20;64.29;-19767.69;5090104;28;20743;-58
2022/03/11 02:32:42;;;;;;;8.83;6.20;;;0.40;99.90;;;1.17;64.79;-19766.84;5090558;28;20640;-59
2022/03/11 02:35:11;;;;;;;11.03;7.07;;;0.40;99.90;;;1.25;63.47;-19769.56;5090440;28;20478;-59
2022/03/11 02:37:39;;;;;;;8.93;6.40;;;0.40;99.90;;;1.32;63.69;-19771.63;5089814;28;20649;-57
2022/03/11 02:40:10;;;;;;;10.00;6.87;;;0.50;99.90;;;1.25;64.14;-19769.41;5091332;28;20295;-62
2022/03/11 02:42:38;;;;;;;11.53;6.77;;;0.50;99.90;;;1.22;63.90;-19768.38;5090710;28;20795;-59
2022/03/11 02:45:08;;;;;;;10.40;7.00;;;0.50;99.90;;;1.13;64.48;-19765.28;5090226;28;20311;-59
2022/03/11 02:47:36;;;;;;;10.03;7.13;;;0.40;99.90;;;1.15;64.19;-19766.16;5090323;28;20302;-60
2022/03/11 02:50:05;;;;;;;11.00;7.00;;;0.40;99.90;;;1.03;64.58;-19761.88;5090554;28;20608;-59
2022/03/11 02:52:33;;;;;;;13.53;7.27;;;0.40;99.90;;;0.92;65.32;-19758.13;5090708;28;20204;-58
2022/03/11 02:55:01;;;;;;;8.53;6.30;;;0.30;99.90;;;1.04;64.31;-19762.38;5090832;28;20200;-60
2022/03/11 02:57:30;;;;;;;8.80;6.70;;;0.20;99.90;;;1.01;64.56;-19761.19;5092462;28;20258;-58
2022/03/11 02:59:58;;;;;;;11.20;7.10;;;0.30;99.90;;;0.98;64.94;-19760.34;5093971;28;20236;-59
2022/03/11 03:02:27;;;;;;;10.07;6.60;;;0.20;99.90;;;0.82;65.00;-19754.69;5094070;28;20269;-59
2022/03/11 03:04:55;;;;;;;10.60;6.80;;;0.10;99.90;;;1.00;64.12;-19760.84;5094043;28;20218;-59
2022/03/11 03:07:22;;;;;;;11.30;6.83;;;0.20;99.90;;;0.88;64.54;-19756.91;5094057;28;20235;-60
2022/03/11 03:09:50;;;;;;;9.80;5.83;;;0.10;99.90;;;0.72;64.87;-19751.28;5094728;28;20265;-60
2022/03/11 03:12:18;;;;;;;9.40;6.67;;;0.10;99.90;;;0.79;64.17;-19753.84;5093534;28;20227;-58
2022/03/11 03:14:48;;;;;;;11.33;6.30;;;0.10;99.90;;;0.87;63.36;-19756.56;5093602;28;20608;-57
2022/03/11 03:17:15;;;;;;;10.13;6.90;;;0.10;99.90;;;0.96;63.36;-19759.66;5093246;28;20222;-59
2022/03/11 03:19:43;;;;;;;10.03;6.37;;;0.10;99.90;;;1.02;63.05;-19761.53;5093581;28;20226;-59
2022/03/11 03:22:12;;;;;;;10.17;6.80;;;0.10;99.90;;;0.94;62.89;-19758.78;5094435;28;20203;-59
2022/03/11 03:24:40;;;;;;;10.27;6.27;;;0.20;99.90;;;1.00;62.90;-19760.84;5093243;28;20253;-59
2022/03/11 03:27:08;;;;;;;10.13;6.37;;;0.20;99.90;;;0.86;63.32;-19756.06;5093268;28;20231;-60
2022/03/11 03:29:36;;;;;;;8.83;6.00;;;0.10;99.90;;;0.86;63.11;-19756.06;5093042;28;20627;-60
2022/03/11 03:32:08;;;;;;;10.77;6.83;;;0.10;99.90;;;0.70;63.85;-19750.59;5093455;28;20241;-59
2022/03/11 03:34:38;;;;;;;9.43;6.97;;;0.00;99.90;;;0.64;64.08;-19748.72;5093663;28;20278;-58
2022/03/11 03:37:09;;;;;;;8.70;6.30;;;0.00;99.90;;;0.52;64.59;-19744.59;5094000;28;20274;-59
2022/03/11 03:39:39;;;;;;;10.00;6.30;;;-0.10;99.90;;;0.60;64.33;-19747.34;5093224;28;20262;-60
2022/03/11 03:42:09;;;;;;;11.97;7.10;;;-0.20;99.90;;;0.65;63.89;-19748.88;5093128;28;20250;-60
2022/03/11 03:44:37;;;;;;;11.50;6.87;;;-0.20;99.90;;;0.54;64.39;-19745.28;5093007;28;20262;-59
2022/03/11 03:47:06;;;;;;;10.00;6.27;;;-0.20;99.90;;;0.57;64.18;-19746.16;5093272;28;20659;-59
2022/03/11 03:49:35;;;;;;;8.63;6.07;;;-0.20;99.90;;;0.42;64.25;-19741.00;5093028;28;20584;-59
2022/03/11 03:52:11;;;;;;;8.00;6.03;;;-0.20;99.90;;;0.46;63.74;-19742.56;5094225;28;20243;-57
2022/03/11 03:54:40;;;;;;;8.87;6.53;;;-0.30;99.90;;;0.55;62.86;-19745.63;5092986;28;20775;-58
2022/03/11 03:57:08;;;;;;;11.70;7.03;;;-0.20;99.90;;;0.42;63.37;-19741.00;5093050;28;20310;-59
2022/03/11 03:59:37;;;;;;;9.43;6.27;;;-0.30;99.90;;;0.55;62.88;-19745.47;5092706;28;20237;-60
2022/03/11 04:02:07;;;;;;;9.57;5.87;;;-0.30;99.90;;;0.71;61.13;-19751.09;5093172;28;20283;-58
2022/03/11 04:04:35;;;;;;;8.30;6.23;;;-0.20;99.90;;;0.71;61.12;-19750.94;5092991;28;20607;-59
2022/03/11 04:07:04;;;;;;;9.20;6.17;;;-0.20;99.90;;;0.60;60.76;-19747.34;5093474;28;20242;-59
2022/03/11 04:09:32;;;;;;;9.57;5.60;;;-0.10;99.90;;;0.66;61.03;-19749.22;5091630;28;20274;-59
2022/03/11 04:12:00;;;;;;;8.27;5.73;;;-0.20;99.90;;;0.41;61.61;-19740.66;5092518;28;20228;-58
2022/03/11 04:14:28;;;;;;;8.73;6.23;;;-0.20;99.90;;;0.55;61.40;-19745.47;5092314;28;20312;-59
2022/03/11 04:16:57;;;;;;;10.03;6.07;;;-0.20;99.90;;;0.61;60.50;-19747.50;5092664;28;20299;-60
2022/03/11 04:19:26;;;;;;;11.07;6.27;;;-0.20;99.90;;;0.47;60.92;-19742.72;5092742;28;20283;-59
2022/03/11 04:21:55;;;;;;;10.70;6.50;;;-0.20;99.90;;;0.71;60.08;-19751.09;5093287;28;20234;-61
2022/03/11 04:24:23;;;;;;;9.20;5.80;;;-0.20;99.90;;;0.62;59.72;-19748.03;5092182;28;20746;-59
2022/03/11 04:26:52;;;;;;;10.53;5.87;;;-0.20;99.90;;;0.61;60.06;-19747.69;5092460;28;20319;-58
2022/03/11 04:29:20;;;;;;;8.60;5.97;;;-0.20;99.90;;;0.74;59.26;-19752.13;5092139;28;20221;-59
2022/03/11 04:31:47;;;;;;;8.67;5.80;;;-0.20;99.90;;;0.64;59.64;-19748.72;5092266;28;20255;-60
2022/03/11 04:34:16;;;;;;;8.57;5.77;;;-0.20;99.90;;;0.69;59.11;-19750.25;5093232;28;20196;-59
2022/03/11 04:36:45;;;;;;;9.63;6.37;;;-0.20;99.90;;;0.73;58.11;-19751.78;5092305;28;20226;-60
2022/03/11 04:39:14;;;;;;;9.80;6.23;;;-0.10;99.90;;;0.49;59.42;-19743.41;5092099;28;20255;-59
2022/03/11 04:41:42;;;;;;;11.43;6.17;;;-0.20;99.90;;;0.35;59.54;-19738.63;5092080;28;20314;-57
2022/03/11 04:44:11;;;;;;;8.07;6.03;;;-0.20;99.90;;;0.26;59.83;-19735.53;5091748;28;20219;-57
2022/03/11 04:46:39;;;;;;;9.07;5.83;;;-0.30;99.90;;;0.50;59.18;-19743.91;5092068;28;20222;-57
2022/03/11 04:49:07;;;;;;;11.00;6.80;;;-0.30;99.90;;;0.55;57.75;-19745.63;5092541;28;20197;-60
2022/03/11 04:51:35;;;;;;;10.37;6.30;;;-0.20;99.90;;;0.52;58.37;-19744.59;5092115;28;20329;-56
2022/03/11 04:54:04;;;;;;;8.77;5.77;;;-0.20;99.90;;;0.23;58.94;-19734.53;5091527;28;20792;-56
2022/03/11 04:56:32;;;;;;;10.20;6.07;;;-0.30;99.90;;;0.27;58.90;-19736.06;5091700;28;20238;-58
2022/03/11 04:59:01;;;;;;;11.67;6.47;;;-0.40;99.90;;;0.50;58.69;-19743.75;5091296;28;20251;-58
2022/03/11 05:01:29;;;;;;;9.77;5.87;;;-0.30;99.90;;;0.30;59.13;-19736.91;5091623;28;20673;-58
2022/03/11 05:03:57;;;;;;;7.57;5.40;;;-0.40;99.90;;;0.50;58.47;-19743.91;5092440;28;20338;-58
2022/03/11 05:06:25;;;;;;;10.33;6.00;;;-0.40;99.90;;;0.38;58.62;-19739.66;5091774;28;20233;-59
2022/03/11 05:08:53;;;;;;;8.33;6.00;;;-0.40;99.90;;;0.27;58.51;-19736.06;5091344;28;20302;-58
2022/03/11 05:11:23;;;;;;;8.83;5.67;;;-0.40;99.90;;;0.25;58.67;-19735.38;5091556;28;20413;-58
2022/03/11 05:13:50;;;;;;;8.90;5.83;;;-0.50;99.90;;;0.16;59.17;-19732.13;5091111;28;20316;-59
2022/03/11 05:16:18;;;;;;;9.50;5.57;;;-0.50;99.90;;;0.49;57.91;-19743.41;5092242;28;20629;-60
2022/03/11 05:18:48;;;;;;;9.07;5.77;;;-0.40;99.90;;;0.28;58.38;-19736.22;5091593;28;20576;-59
2022/03/11 05:21:16;;;;;;;7.67;5.50;;;-0.40;99.90;;;0.23;58.69;-19734.69;5091392;28;20309;-59
2022/03/11 05:23:44;;;;;;;7.80;5.90;;;-0.50;99.90;;;-0.03;59.25;-19725.78;5091449;28;20660;-58
2022/03/11 05:26:24;;;;;;;7.17;5.53;;;-0.50;99.90;;;0.24;58.66;-19734.88;5091444;28;20304;-59
2022/03/11 05:28:55;;;;;;;9.83;6.20;;;-0.50;99.90;;;0.20;58.29;-19733.66;5091217;28;20235;-59
2022/03/11 05:31:23;;;;;;;12.13;6.20;;;-0.50;99.90;;;0.27;58.59;-19735.88;5091432;28;20319;-59
2022/03/11 05:33:52;;;;;;;11.20;5.90;;;-0.50;99.90;;;0.37;58.05;-19739.47;5092504;28;20678;-59
2022/03/11 05:36:20;;;;;;;7.57;5.67;;;-0.50;99.90;;;0.32;57.57;-19737.78;5091501;28;20224;-60
2022/03/11 05:38:48;;;;;;;8.40;5.70;;;-0.50;99.90;;;0.22;57.29;-19734.34;5091181;28;20570;-59
2022/03/11 05:41:16;;;;;;;8.30;5.63;;;-0.50;99.90;;;0.32;57.31;-19737.78;5090981;28;20222;-58
2022/03/11 05:43:44;;;;;;;9.93;5.93;;;-0.40;99.90;;;0.30;57.71;-19737.09;5091243;28;20323;-57
2022/03/11 05:46:14;;;;;;;10.33;5.97;;;-0.40;99.90;;;0.52;56.97;-19744.59;5091664;28;20297;-60
2022/03/11 05:48:42;;;;;;;9.43;6.40;;;-0.40;99.90;;;0.51;56.72;-19744.09;5090754;28;20227;-58
2022/03/11 05:51:10;;;;;;;8.37;5.60;;;-0.40;99.90;;;0.49;56.11;-19743.41;5090799;28;20239;-60
2022/03/11 05:53:38;;;;;;;8.13;6.03;;;-0.30;99.90;;;0.53;56.24;-19744.94;5090888;28;20247;-58
2022/03/11 05:56:06;;;;;;;10.37;5.83;;;-0.30;99.90;;;0.61;55.63;-19747.50;5091056;28;20602;-60
2022/03/11 05:58:34;;;;;;;9.90;5.87;;;-0.30;99.90;;;0.50;55.64;-19743.75;5090746;28;20210;-60
2022/03/11 06:01:03;;;;;;;9.40;5.90;;;-0.30;99.90;;;0.37;55.25;-19739.47;5091658;28;20365;-60
2022/03/11 06:03:33;;;;;;;9.83;6.20;;;-0.30;99.90;;;0.33;55.26;-19738.09;5091013;28;20260;-60
2022/03/11 06:06:01;;;;;;;9.93;5.43;;;-0.30;99.90;;;0.58;54.78;-19746.47;5090540;28;20222;-59
2022/03/11 06:08:29;;;;;;;11.07;5.47;;;-0.30;99.90;;;0.66;53.81;-19749.22;5090730;28;20308;-59
2022/03/11 06:10:57;;;;;;;10.23;6.43;;;-0.20;99.90;;;0.65;54.16;-19748.88;5090980;28;20251;-60
2022/03/11 06:13:25;;;;;;;9.90;5.93;;;-0.20;99.90;;;0.79;52.67;-19753.84;5090693;28;20254;-59
2022/03/11 06:15:53;;;;;;;8.90;5.27;;;-0.10;99.90;;;0.70;53.11;-19750.59;5091308;28;20292;-59
2022/03/11 06:18:21;;;;;;;8.90;5.10;;;-0.10;99.90;;;0.73;53.24;-19751.78;5090569;28;20228;-59
2022/03/11 06:20:51;;;;;;;11.47;5.40;;;-0.10;99.90;;;0.76;53.29;-19752.66;5090719;28;20270;-58
2022/03/11 06:23:19;;;;;;;8.33;5.60;;;-0.10;99.90;;;0.84;52.72;-19755.56;5090871;28;20310;-60
2022/03/11 06:25:46;;;;;;;8.97;5.80;;;0.00;99.90;;;0.80;52.95;-19754.19;5090690;28;20543;-58
2022/03/11 06:28:15;;;;;;;11.23;5.77;;;0.00;99.90;;;0.96;52.25;-19759.66;5091174;28;20247;-59
2022/03/11 06:30:45;;;;;;;8.33;5.37;;;0.00;99.90;;;0.99;52.71;-19760.50;5090269;28;20238;-58
2022/03/11 06:33:13;;;;;;;9.17;5.70;;;0.10;99.90;;;1.05;51.73;-19762.72;5093894;28;20250;-59
2022/03/11 06:35:41;;;;;;;8.53;5.37;;;0.20;99.90;;;1.14;51.34;-19765.63;5094319;28;20730;-60
2022/03/11 06:38:10;;;;;;;8.53;5.73;;;0.30;99.90;;;1.16;51.64;-19766.50;5094612;28;20318;-59
2022/03/11 06:40:38;;;;;;;9.63;5.63;;;0.30;99.90;;;1.00;51.71;-19761.03;5094747;28;20291;-60
2022/03/11 06:43:06;;;;;;;11.90;5.80;;;0.30;99.90;;;1.14;51.58;-19765.81;5095415;28;20300;-58
2022/03/11 06:45:34;;;;;;;10.77;5.87;;;0.30;99.90;;;1.24;51.71;-19769.06;5094012;28;20687;-59
2022/03/11 06:48:03;;;;;;;7.80;5.40;;;0.40;99.90;;;1.27;51.52;-19770.06;5094652;28;20226;-59
2022/03/11 06:50:31;;;;;;;9.70;6.43;;;0.40;99.90;;;1.25;51.48;-19769.41;5093967;28;20226;-59
2022/03/11 06:52:59;;;;;;;8.77;5.43;;;0.50;99.90;;;1.38;50.55;-19773.84;5094455;28;20232;-59
2022/03/11 06:55:28;;;;;;;9.57;5.87;;;0.60;99.90;;;1.56;50.58;-19779.81;5094153;28;20295;-60
2022/03/11 06:57:56;;;;;;;8.93;5.90;;;0.60;99.90;;;1.60;49.35;-19781.38;5094242;28;20294;-59
2022/03/11 07:00:24;;;;;;;8.63;5.27;;;0.80;99.90;;;1.79;49.14;-19787.88;5093585;28;20227;-60
2022/03/11 07:02:53;;;;;;;9.30;5.67;;;0.90;99.90;;;1.91;48.43;-19791.78;5093709;28;20338;-59
2022/03/11 07:05:22;;;;;;;8.53;6.07;;;1.00;99.90;;;1.88;48.13;-19790.94;5093839;28;20377;-59
2022/03/11 07:07:50;;;;;;;9.63;5.70;;;1.10;99.90;;;1.88;48.18;-19790.75;5093940;28;20313;-59
2022/03/11 07:10:19;;;;;;;8.87;5.43;;;1.10;99.90;;;1.91;47.86;-19791.97;5093896;28;20230;-60
2022/03/11 07:12:48;;;;;;;8.93;5.60;;;1.10;99.90;;;2.18;47.73;-19801.19;5093443;28;20309;-59
2022/03/11 07:15:17;;;;;;;9.67;5.47;;;1.20;99.90;;;2.15;47.24;-19800.00;5093352;28;20207;-62
2022/03/11 07:17:46;;;;;;;8.87;5.97;;;1.30;99.90;;;2.27;46.57;-19804.28;5093780;28;20254;-61
2022/03/11 07:20:14;;;;;;;9.43;5.77;;;1.40;99.90;;;2.31;46.36;-19805.47;5093247;28;20778;-60
2022/03/11 07:22:43;;;;;;;9.07;5.67;;;1.50;99.90;;;2.29;45.84;-19804.97;5093731;28;20246;-59
2022/03/11 07:25:11;;;;;;;8.93;5.73;;;1.50;99.90;;;2.41;45.51;-19808.88;5093717;28;20264;-60
2022/03/11 07:27:39;;;;;;;7.43;5.37;;;1.50;99.90;;;2.36;45.35;-19807.19;5093249;28;20313;-59
2022/03/11 07:30:11;;;;;;;7.60;5.30;;;1.60;99.90;;;2.57;44.77;-19814.19;5092960;28;20226;-61
2022/03/11 07:32:39;;;;;;;10.10;6.07;;;1.60;99.90;;;2.72;44.23;-19819.31;5093133;28;20663;-59
2022/03/11 07:35:12;;;;;;;8.33;5.17;;;1.80;99.90;;;2.78;44.05;-19821.53;5093456;28;20325;-59
2022/03/11 07:37:40;;;;;;;9.43;5.40;;;1.80;99.90;;;2.92;43.95;-19826.16;5093534;28;20319;-59
2022/03/11 07:40:11;;;;;;;9.77;5.73;;;2.00;99.90;;;3.05;43.53;-19830.59;5093565;28;20202;-60
2022/03/11 07:42:42;;;;;;;7.93;5.30;;;2.10;99.90;;;3.01;42.84;-19829.41;5093217;28;20259;-59
2022/03/11 07:45:14;;;;;;;6.97;5.50;;;2.10;99.90;;;3.15;42.81;-19834.00;5092955;28;20218;-61
2022/03/11 07:47:44;;;;;;;10.40;5.47;;;2.20;99.90;;;3.12;42.75;-19833.00;5093222;28;20318;-59
2022/03/11 07:50:14;;;;;;;9.73;6.23;;;2.20;99.90;;;3.26;42.61;-19837.94;5093041;28;20231;-60
2022/03/11 07:52:42;;;;;;;9.23;5.40;;;2.30;99.90;;;3.30;42.80;-19839.31;5093148;28;20306;-60
2022/03/11 07:55:11;;;;;;;7.87;5.63;;;2.40;99.90;;;3.35;42.46;-19841.03;5093579;28;20698;-59
2022/03/11 07:57:40;;;;;;;8.23;5.57;;;2.40;99.90;;;3.46;42.65;-19844.78;5092769;28;20316;-59
2022/03/11 08:00:13;;;;;;;8.17;6.40;;;2.50;99.90;;;3.54;42.47;-19847.34;5092794;28;20225;-60
2022/03/11 08:02:41;;;;;;;10.93;5.67;;;2.60;99.90;;;3.57;42.42;-19848.38;5093181;28;20224;-61
2022/03/11 08:05:14;;;;;;;10.20;5.57;;;2.60;99.90;;;3.57;42.59;-19848.38;5093114;28;20775;-60
2022/03/11 08:07:47;;;;;;;8.17;5.53;;;2.70;99.90;;;3.74;42.57;-19854.19;5093085;28;20229;-60
2022/03/11 08:10:15;;;;;;;9.43;6.00;;;2.80;99.90;;;3.89;41.76;-19859.16;5093421;28;20204;-59
2022/03/11 08:12:43;;;;;;;8.90;6.03;;;2.90;99.90;;;4.00;41.74;-19862.91;5092350;28;20265;-59
2022/03/11 08:15:12;;;;;;;8.53;5.70;;;3.00;99.90;;;3.99;41.66;-19862.56;5092830;28;20756;-59
2022/03/11 08:17:41;;;;;;;8.33;5.77;;;3.00;99.90;;;4.01;41.83;-19863.25;5092589;28;20311;-60
2022/03/11 08:20:11;;;;;;;10.97;5.67;;;3.10;99.90;;;4.10;41.48;-19866.31;5092965;28;20301;-59
2022/03/11 08:22:39;;;;;;;8.40;5.83;;;3.10;99.90;;;4.11;41.56;-19866.66;5092571;28;20259;-60
2022/03/11 08:25:09;;;;;;;9.83;5.80;;;3.20;99.90;;;4.11;41.50;-19866.84;5093024;28;20287;-61
2022/03/11 08:27:40;;;;;;;9.07;5.90;;;3.20;99.90;;;4.21;41.69;-19870.25;5092085;28;20221;-59
2022/03/11 08:30:12;;;;;;;9.60;6.03;;;3.20;99.90;;;4.27;41.26;-19872.31;5092354;28;20233;-59
2022/03/11 08:32:41;;;;;;;8.30;5.67;;;3.20;99.90;;;4.09;41.23;-19866.16;5091925;28;20232;-61
2022/03/11 08:35:13;;;;;;;7.50;5.60;;;3.20;99.90;;;4.08;41.42;-19865.81;5092527;28;20258;-57
2022/03/11 08:37:41;;;;;;;8.13;6.00;;;3.20;99.90;;;4.15;41.46;-19868.22;5092359;28;20243;-59
2022/03/11 08:40:12;;;;;;;7.77;5.83;;;3.20;99.90;;;4.21;41.88;-19870.09;5092789;28;20734;-58
2022/03/11 08:42:41;;;;;;;8.23;5.70;;;3.30;99.90;;;4.40;41.32;-19876.56;5092091;28;20628;-59
2022/03/11 08:45:13;;;;;;;10.97;6.80;;;3.40;99.90;;;4.45;40.83;-19878.47;5091790;28;20616;-59
2022/03/11 08:47:45;;;;;;;9.40;6.30;;;3.40;99.90;;;4.35;41.65;-19875.03;5092079;28;20740;-60
2022/03/11 08:50:13;;;;;;;12.27;6.20;;;3.40;99.90;;;4.56;41.36;-19882.22;5092231;28;20249;-61
2022/03/11 08:52:41;;;;;;;8.37;5.97;;;3.60;99.90;;;4.75;41.48;-19888.53;5092003;28;20251;-59
2022/03/11 08:55:11;;;;;;;8.57;5.87;;;3.70;99.90;;;4.95;40.96;-19895.56;5092048;28;20247;-59
2022/03/11 08:57:41;;;;;;;10.73;6.03;;;3.80;99.90;;;5.10;40.61;-19900.34;5091319;28;20303;-59
2022/03/11 09:00:14;;;;;;;8.93;6.30;;;4.00;99.90;;;5.29;40.38;-19906.84;5091246;28;20302;-59
2022/03/11 09:02:42;;;;;;;9.50;5.90;;;4.10;99.90;;;5.28;40.06;-19906.50;5091555;28;20231;-59
2022/03/11 09:05:11;;;;;;;9.40;5.90;;;4.20;99.90;;;5.15;39.65;-19902.03;5091774;28;20246;-60
2022/03/11 09:07:39;;;;;;;8.57;6.10;;;4.20;99.90;;;5.25;40.02;-19905.47;5091467;28;20239;-59
2022/03/11 09:10:10;;;;;;;8.77;5.97;;;4.20;99.90;;;5.29;39.86;-19907.00;5092353;28;20206;-58
2022/03/11 09:12:38;;;;;;;8.63;5.73;;;4.30;99.90;;;5.37;39.79;-19909.75;5091116;28;20603;-59
2022/03/11 09:15:09;;;;;;;8.27;5.87;;;4.30;99.90;;;5.44;39.64;-19912.13;5090666;28;20318;-60
2022/03/11 09:17:39;;;;;;;8.80;5.67;;;4.40;99.90;;;5.50;39.90;-19914.19;5091423;28;20257;-59
2022/03/11 09:20:09;;;;;;;10.43;6.57;;;4.50;99.90;;;5.63;39.22;-19918.47;5091825;28;20247;-60
2022/03/11 09:22:47;;;;;;;8.90;6.10;;;4.60;99.90;;;5.77;39.43;-19923.41;5091390;28;20229;-60
2022/03/11 09:25:16;;;;;;;9.17;6.10;;;4.70;99.90;;;5.87;39.15;-19926.66;5092332;28;20290;-59
2022/03/11 09:27:45;;;;;;;8.93;6.10;;;4.80;99.90;;;5.76;39.43;-19922.91;5091705;28;20649;-59
2022/03/11 09:30:13;;;;;;;9.13;6.13;;;4.80;99.90;;;5.87;39.51;-19926.66;5091516;28;20227;-62
2022/03/11 09:32:43;;;;;;;12.73;6.07;;;4.90;99.90;;;6.00;39.45;-19931.13;5091122;28;20273;-60
2022/03/11 09:35:12;;;;;;;11.90;5.97;;;4.90;99.90;;;6.10;39.38;-19934.53;5091143;28;20255;-60
2022/03/11 09:37:41;;;;;;;9.43;6.33;;;5.00;99.90;;;6.05;38.59;-19932.81;5091176;28;20238;-60
2022/03/11 09:40:12;;;;;;;10.97;6.17;;;5.10;99.90;;;5.97;38.89;-19930.09;5091908;28;20200;-60
2022/03/11 09:42:40;;;;;;;6.90;5.63;;;5.00;99.90;;;6.09;38.67;-19934.34;5091008;28;20226;-60
2022/03/11 09:45:09;;;;;;;7.57;5.73;;;5.10;99.90;;;6.13;38.90;-19935.56;5091007;28;20657;-59
2022/03/11 09:47:39;;;;;;;8.27;5.87;;;5.10;99.90;;;6.19;39.13;-19937.78;5090893;28;20620;-60
2022/03/11 09:50:09;;;;;;;8.90;5.50;;;5.20;99.90;;;6.18;38.61;-19937.44;5091014;28;20208;-60
2022/03/11 09:52:38;;;;;;;8.03;5.90;;;5.20;99.90;;;6.34;38.68;-19942.56;5091329;28;20233;-60
2022/03/11 09:55:09;;;;;;;7.70;5.83;;;5.30;99.90;;;6.55;38.30;-19949.72;5091453;28;20218;-60
2022/03/11 09:57:37;;;;;;;8.40;6.78;;;5.40;99.90;;;6.67;37.37;-19954.00;5090200;28;21027;-60
2022/03/11 10:00:09;;;;;;;8.30;6.10;;;5.50;99.90;;;6.62;37.30;-19952.13;5090856;28;20720;-61
2022/03/11 10:02:37;;;;;;;8.53;6.33;;;5.60;99.90;;;6.69;37.82;-19954.69;5090813;28;20251;-59
2022/03/11 10:05:06;;;;;;;8.93;6.07;;;5.70;99.90;;;6.89;37.48;-19961.34;5091434;28;20264;-60
2022/03/11 10:08:01;;;;;;;9.20;5.70;;;5.80;99.90;;;6.97;37.22;-19964.09;5093654;28;20260;-60
2022/03/11 10:10:30;;;;;;;8.57;6.23;;;5.90;99.90;;;7.10;37.02;-19968.53;5095375;28;20248;-61
2022/03/11 10:13:08;;;;;;;10.40;6.07;;;6.00;99.90;;;7.19;36.77;-19971.59;5095339;28;20215;-60
2022/03/11 10:15:37;;;;;;;10.13;6.47;;;6.10;99.90;;;7.30;36.58;-19975.38;5095270;28;20232;-60
2022/03/11 10:18:09;;;;;;;8.00;5.97;;;6.20;99.90;;;7.43;36.81;-19979.97;5095323;28;20220;-60
2022/03/11 10:20:38;;;;;;;7.23;5.53;;;6.30;99.90;;;7.64;36.69;-19986.81;5094927;28;20227;-60
2022/03/11 10:23:11;;;;;;;8.87;6.00;;;6.40;99.90;;;7.70;36.42;-19988.88;5094870;28;20261;-60
2022/03/11 10:25:39;;;;;;;8.73;6.57;;;6.50;99.90;;;7.71;35.84;-19989.22;5094997;28;20234;-60
2022/03/11 10:28:10;;;;;;;8.80;6.00;;;6.60;99.90;;;7.74;36.10;-19990.41;5094916;28;20246;-59
2022/03/11 10:30:41;;;;;;;10.53;6.00;;;6.60;99.90;;;7.93;35.82;-19996.72;5094374;28;20243;-61